Time;durP1;ratioP1;P1;durP2;ratioP2;P2;SDS_P1;SDS_P2;PMS_P1;PMS_P2;Temp;Humidity;BMP_temperature;BMP_pressure;BME280_temperature;BME280_humidity;BME280_pressure;Samples;Min_cycle;Max_cycle;Signal;HPM_P1;HPM_P2
2023/06/28 00:01:30;;;;;;;3.03;2.00;;;14.50;1.00;;;;;;5054525;28;20209;-77
2023/06/28 00:03:56;;;;;;;7.50;2.20;;;14.30;1.00;;;;;;5057760;28;20249;-76
2023/06/28 00:06:22;;;;;;;5.57;1.90;;;14.30;1.00;;;;;;5055590;28;20719;-78
2023/06/28 00:08:47;;;;;;;6.25;2.22;;;14.30;1.00;;;;;;5059448;28;20240;-77
2023/06/28 00:11:13;;;;;;;4.00;1.83;;;14.30;1.00;;;;;;5057078;28;20221;-79
2023/06/28 00:13:39;;;;;;;3.92;2.05;;;14.70;1.00;;;;;;5058179;28;20193;-76
2023/06/28 00:16:04;;;;;;;4.80;1.80;;;14.30;1.00;;;;;;5056426;28;20205;-78
2023/06/28 00:18:30;;;;;;;3.63;1.70;;;14.50;1.00;;;;;;5057547;28;20265;-78
2023/06/28 00:20:56;;;;;;;4.97;2.55;;;14.30;1.00;;;;;;5055580;28;20239;-77
2023/06/28 00:23:22;;;;;;;4.28;2.03;;;14.30;1.00;;;;;;5058838;28;20559;-77
2023/06/28 00:25:48;;;;;;;2.67;1.90;;;14.20;1.00;;;;;;5056330;28;20288;-76
2023/06/28 00:28:14;;;;;;;4.80;2.05;;;14.20;1.00;;;;;;5053852;28;20194;-75
2023/06/28 00:30:39;;;;;;;4.47;2.30;;;14.20;1.00;;;;;;5057703;28;20284;-76
2023/06/28 00:33:05;;;;;;;3.13;2.13;;;14.70;1.00;;;;;;5047464;28;20277;-77
2023/06/28 00:35:31;;;;;;;5.05;2.00;;;14.60;1.00;;;;;;5038066;28;20205;-76
2023/06/28 00:37:56;;;;;;;4.10;2.30;;;14.10;1.00;;;;;;5059428;28;20260;-78
2023/06/28 00:40:22;;;;;;;2.38;2.00;;;14.10;1.00;;;;;;5056963;28;20193;-77
2023/06/28 00:42:47;;;;;;;3.97;2.15;;;14.20;1.00;;;;;;5055902;28;20189;-77
2023/06/28 00:45:14;;;;;;;5.85;2.15;;;14.10;1.00;;;;;;5056597;28;20213;-76
2023/06/28 00:47:41;;;;;;;4.32;2.10;;;14.10;1.00;;;;;;5055007;28;20193;-77
2023/06/28 00:50:07;;;;;;;2.50;2.08;;;14.00;1.00;;;;;;5054216;28;20213;-78
2023/06/28 00:52:33;;;;;;;2.63;1.95;;;14.00;1.00;;;;;;5055989;28;20271;-75
2023/06/28 00:55:00;;;;;;;4.22;2.15;;;13.90;1.00;;;;;;5056424;28;20221;-76
2023/06/28 00:57:26;;;;;;;3.17;2.10;;;13.90;1.00;;;;;;5054745;28;20655;-76
2023/06/28 00:59:52;;;;;;;6.90;2.63;;;13.90;1.00;;;;;;5055362;28;20188;-75
2023/06/28 01:02:19;;;;;;;6.93;2.28;;;13.90;1.00;;;;;;5055660;28;20205;-76
2023/06/28 01:04:44;;;;;;;5.13;2.10;;;13.90;1.00;;;;;;5055070;28;20209;-77
2023/06/28 01:07:11;;;;;;;3.00;1.65;;;13.90;1.00;;;;;;5055756;28;20673;-76
2023/06/28 01:09:38;;;;;;;4.35;1.98;;;13.90;1.00;;;;;;5057572;28;20651;-78
2023/06/28 01:12:04;;;;;;;6.70;1.95;;;13.90;1.00;;;;;;5056516;28;20331;-78
2023/06/28 01:14:30;;;;;;;4.55;2.28;;;13.80;1.00;;;;;;5054419;28;20185;-77
2023/06/28 01:16:56;;;;;;;5.28;2.40;;;13.80;1.00;;;;;;5052191;28;20825;-76
2023/06/28 01:19:24;;;;;;;3.42;1.95;;;13.90;1.00;;;;;;5059544;28;20177;-76
2023/06/28 01:21:53;;;;;;;4.22;2.30;;;13.90;1.00;;;;;;5056837;28;20248;-78
2023/06/28 01:24:21;;;;;;;3.60;2.30;;;13.80;1.00;;;;;;5052856;28;20252;-76
2023/06/28 01:26:52;;;;;;;3.05;2.05;;;13.80;1.00;;;;;;5053433;28;20201;-77
2023/06/28 01:29:23;;;;;;;2.58;1.98;;;13.80;1.00;;;;;;5056962;28;20181;-75
2023/06/28 01:31:54;;;;;;;3.95;1.92;;;13.80;1.00;;;;;;5054948;28;20178;-78
2023/06/28 01:34:22;;;;;;;5.80;2.40;;;13.70;1.00;;;;;;5056093;28;20678;-77
2023/06/28 01:36:49;;;;;;;2.90;1.90;;;13.70;1.00;;;;;;5056986;28;20575;-77
2023/06/28 01:39:17;;;;;;;3.92;2.10;;;13.60;1.00;;;;;;5055904;28;20200;-75
2023/06/28 01:41:44;;;;;;;4.70;2.20;;;13.70;1.00;;;;;;5053596;28;20173;-76
2023/06/28 01:44:10;;;;;;;3.88;2.17;;;13.60;1.00;;;;;;5053988;28;20189;-76
2023/06/28 01:46:36;;;;;;;5.97;2.22;;;13.70;1.00;;;;;;5055624;28;20206;-76
2023/06/28 01:49:01;;;;;;;3.20;2.10;;;13.50;1.00;;;;;;5056471;28;20182;-76
2023/06/28 01:51:27;;;;;;;2.70;2.00;;;13.90;1.00;;;;;;5053978;28;20220;-75
2023/06/28 01:53:53;;;;;;;4.68;2.00;;;13.50;1.00;;;;;;5056229;28;20697;-75
2023/06/28 01:56:18;;;;;;;4.45;2.17;;;13.30;99.90;;;;;;5056104;28;20209;-78
2023/06/28 01:58:44;;;;;;;3.92;1.80;;;13.30;99.90;;;;;;5055593;28;20232;-76
2023/06/28 02:01:10;;;;;;;3.90;2.03;;;13.30;99.90;;;;;;5056589;28;20213;-76
2023/06/28 02:03:35;;;;;;;4.43;2.05;;;13.20;99.90;;;;;;5056323;28;20193;-76
2023/06/28 02:06:01;;;;;;;4.68;1.70;;;13.30;99.90;;;;;;5037288;28;20275;-75
2023/06/28 02:08:26;;;;;;;2.55;1.60;;;13.20;1.00;;;;;;5056108;28;20202;-78
2023/06/28 02:10:52;;;;;;;2.72;1.90;;;13.10;99.90;;;;;;5054748;28;20205;-76
2023/06/28 02:13:17;;;;;;;4.45;1.70;;;13.10;1.00;;;;;;5057731;28;20177;-77
2023/06/28 02:15:43;;;;;;;5.30;2.30;;;13.00;1.00;;;;;;5055614;28;20288;-76
2023/06/28 02:18:10;;;;;;;3.38;2.05;;;12.80;1.00;;;;;;5056102;28;20255;-77
2023/06/28 02:20:35;;;;;;;3.70;2.45;;;12.80;1.00;;;;;;5053300;28;20700;-78
2023/06/28 02:23:01;;;;;;;5.80;2.30;;;12.80;1.00;;;;;;5053539;28;20771;-78
2023/06/28 02:25:27;;;;;;;5.10;2.20;;;12.90;1.00;;;;;;5054471;28;20205;-75
2023/06/28 02:27:52;;;;;;;4.90;2.20;;;13.00;1.00;;;;;;5057698;28;20576;-76
2023/06/28 02:30:18;;;;;;;4.72;2.08;;;13.00;1.00;;;;;;5057193;28;20539;-76
2023/06/28 02:32:44;;;;;;;4.10;2.08;;;12.90;1.00;;;;;;5059153;28;20265;-77
2023/06/28 02:35:09;;;;;;;4.05;2.15;;;13.00;1.00;;;;;;5060313;28;20210;-77
2023/06/28 02:37:35;;;;;;;6.57;2.17;;;13.00;1.00;;;;;;5057310;28;20193;-75
2023/06/28 02:40:02;;;;;;;5.35;2.85;;;13.00;1.00;;;;;;5060854;28;20264;-78
2023/06/28 02:42:28;;;;;;;6.68;2.90;;;13.10;1.00;;;;;;5056106;28;20549;-77
2023/06/28 02:44:53;;;;;;;3.95;2.10;;;13.10;1.00;;;;;;5059690;28;20197;-75
2023/06/28 02:47:19;;;;;;;3.70;2.13;;;13.00;1.00;;;;;;5058005;28;20186;-74
2023/06/28 02:49:44;;;;;;;3.95;2.35;;;13.20;1.00;;;;;;5059496;28;20213;-78
2023/06/28 02:52:11;;;;;;;3.78;2.22;;;13.00;99.90;;;;;;5058892;28;20261;-77
2023/06/28 02:54:36;;;;;;;6.40;2.22;;;12.90;1.00;;;;;;5059352;28;20625;-78
2023/06/28 02:57:03;;;;;;;5.40;2.30;;;13.10;1.00;;;;;;5058653;28;20586;-76
2023/06/28 02:59:28;;;;;;;8.05;2.55;;;13.00;99.90;;;;;;5059704;28;20169;-75
2023/06/28 03:01:54;;;;;;;3.67;2.22;;;12.90;1.00;;;;;;5058921;28;20182;-76
2023/06/28 03:04:19;;;;;;;5.68;2.58;;;12.80;1.00;;;;;;5039948;28;20177;-77
2023/06/28 03:06:49;;;;;;;4.28;2.33;;;13.00;99.90;;;;;;5057930;28;20323;-75
2023/06/28 03:09:14;;;;;;;4.25;2.05;;;12.90;1.00;;;;;;5055892;28;20763;-75
2023/06/28 03:11:40;;;;;;;7.68;2.28;;;12.90;1.00;;;;;;5057601;28;20213;-76
2023/06/28 03:14:05;;;;;;;2.97;2.20;;;12.90;1.00;;;;;;5059697;28;20185;-76
2023/06/28 03:16:31;;;;;;;4.07;2.40;;;12.80;99.90;;;;;;5059824;28;20198;-78
2023/06/28 03:18:57;;;;;;;3.00;2.30;;;12.90;1.00;;;;;;5056517;28;20210;-77
2023/06/28 03:21:22;;;;;;;3.75;2.00;;;13.00;99.90;;;;;;5058595;28;20194;-77
2023/06/28 03:23:48;;;;;;;6.70;2.20;;;12.90;1.00;;;;;;5059566;28;20178;-74
2023/06/28 03:26:13;;;;;;;4.20;2.10;;;13.20;99.90;;;;;;5059428;28;20209;-78
2023/06/28 03:28:39;;;;;;;3.63;2.20;;;12.90;99.90;;;;;;5056413;28;20632;-78
2023/06/28 03:31:05;;;;;;;6.22;2.08;;;12.90;99.90;;;;;;5058059;28;20209;-76
2023/06/28 03:33:30;;;;;;;3.17;2.10;;;12.80;99.90;;;;;;5060044;28;20633;-77
2023/06/28 03:35:56;;;;;;;3.95;2.08;;;12.80;1.00;;;;;;5056812;28;20225;-76
2023/06/28 03:38:21;;;;;;;4.38;2.20;;;12.80;1.00;;;;;;5053841;28;20186;-75
2023/06/28 03:40:47;;;;;;;3.92;2.05;;;12.80;1.00;;;;;;5054980;28;20190;-76
2023/06/28 03:43:12;;;;;;;4.07;2.20;;;12.90;1.00;;;;;;5057376;28;20190;-77
2023/06/28 03:45:38;;;;;;;4.15;2.60;;;12.90;1.00;;;;;;5057472;28;20237;-76
2023/06/28 03:48:04;;;;;;;3.05;2.72;;;12.90;99.90;;;;;;5038052;28;20178;-75
2023/06/28 03:50:29;;;;;;;3.72;2.25;;;12.90;99.90;;;;;;5058895;28;20209;-78
2023/06/28 03:52:55;;;;;;;3.67;2.00;;;13.00;99.90;;;;;;5054865;28;20400;-76
2023/06/28 03:55:21;;;;;;;3.88;2.25;;;13.00;1.00;;;;;;5059066;28;20209;-76
2023/06/28 03:57:46;;;;;;;4.78;2.10;;;13.20;99.90;;;;;;5056958;28;20185;-79
2023/06/28 04:00:12;;;;;;;5.68;2.47;;;13.20;99.90;;;;;;5058669;28;20182;-77
2023/06/28 04:02:39;;;;;;;5.50;2.63;;;13.10;99.90;;;;;;5058873;28;20633;-76
2023/06/28 04:05:05;;;;;;;5.63;2.65;;;13.20;99.90;;;;;;5057185;28;20220;-76
2023/06/28 04:07:31;;;;;;;4.78;2.45;;;13.20;99.90;;;;;;5059202;28;20205;-78
2023/06/28 04:09:57;;;;;;;4.95;2.80;;;13.30;99.90;;;;;;5060375;28;20213;-75
2023/06/28 04:12:22;;;;;;;7.03;2.42;;;13.30;99.90;;;;;;5057981;28;20212;-77
2023/06/28 04:14:49;;;;;;;4.20;2.30;;;13.40;99.90;;;;;;5057969;28;20177;-76
2023/06/28 04:17:14;;;;;;;4.60;2.60;;;13.50;99.90;;;;;;5058294;28;20186;-75
2023/06/28 04:19:40;;;;;;;3.25;2.20;;;13.50;99.90;;;;;;5057323;28;20751;-77
2023/06/28 04:22:06;;;;;;;6.55;2.55;;;13.60;99.90;;;;;;5057701;28;20196;-78
2023/06/28 04:24:31;;;;;;;4.70;2.47;;;13.70;99.90;;;;;;5058461;28;20228;-76
2023/06/28 04:27:00;;;;;;;3.45;2.05;;;13.80;99.90;;;;;;5057584;28;20220;-77
2023/06/28 04:29:27;;;;;;;5.90;2.58;;;14.00;99.90;;;;;;5059648;28;20337;-77
2023/06/28 04:31:53;;;;;;;5.03;2.95;;;14.10;99.90;;;;;;5054005;28;20205;-77
2023/06/28 04:34:19;;;;;;;5.28;2.65;;;14.20;99.90;;;;;;5055990;28;20657;-78
2023/06/28 04:36:45;;;;;;;7.15;2.67;;;14.30;99.90;;;;;;5053339;28;20229;-78
2023/06/28 04:39:12;;;;;;;4.68;2.65;;;14.20;99.90;;;;;;5058272;28;20537;-76
2023/06/28 04:41:37;;;;;;;5.63;2.60;;;14.30;99.90;;;;;;5056838;28;20182;-76
2023/06/28 04:44:04;;;;;;;4.75;2.50;;;15.10;1.00;;;;;;5054871;28;20194;-76
2023/06/28 04:46:32;;;;;;;5.43;2.80;;;14.60;99.90;;;;;;5054902;28;20206;-77
2023/06/28 04:48:58;;;;;;;4.32;2.70;;;14.60;1.00;;;;;;5052560;28;20192;-75
2023/06/28 04:51:24;;;;;;;5.40;2.67;;;14.70;1.00;;;;;;5054506;28;20205;-76
2023/06/28 04:53:49;;;;;;;4.93;2.78;;;14.70;1.00;;;;;;5038359;28;20677;-79
2023/06/28 04:56:16;;;;;;;6.43;2.40;;;14.90;1.00;;;;;;5055733;28;20205;-77
2023/06/28 04:58:42;;;;;;;5.85;2.50;;;15.10;1.00;;;;;;5053719;28;20513;-76
2023/06/28 05:01:08;;;;;;;5.32;2.65;;;15.90;99.90;;;;;;5053682;28;20273;-76
2023/06/28 05:03:35;;;;;;;4.68;1.80;;;17.40;1.00;;;;;;5036668;28;20208;-77
2023/06/28 05:06:07;;;;;;;4.70;1.70;;;19.10;1.00;;;;;;5055168;28;20765;-77
2023/06/28 05:08:34;;;;;;;6.53;2.25;;;20.30;99.90;;;;;;5057588;28;20185;-78
2023/06/28 05:11:00;;;;;;;4.10;1.60;;;21.30;99.90;;;;;;5036908;28;20790;-78
2023/06/28 05:13:25;;;;;;;3.35;1.73;;;21.90;99.90;;;;;;5056088;28;20228;-78
2023/06/28 05:15:51;;;;;;;4.95;1.80;;;21.80;99.90;;;;;;5056066;28;20202;-76
2023/06/28 05:18:20;;;;;;;5.28;1.75;;;20.80;99.90;;;;;;5055183;28;20185;-78
2023/06/28 05:20:46;;;;;;;6.38;1.83;;;20.60;99.90;;;;;;5055071;28;20743;-75
2023/06/28 05:23:22;;;;;;;5.20;1.98;;;20.10;99.90;;;;;;5056446;28;20186;-78
2023/06/28 05:25:48;;;;;;;4.35;1.75;;;20.20;99.90;;;;;;5055940;28;20201;-76
2023/06/28 05:28:15;;;;;;;5.05;1.80;;;21.40;99.90;;;;;;5059476;28;20189;-77
2023/06/28 05:30:42;;;;;;;6.03;1.88;;;21.70;99.90;;;;;;5052794;28;20201;-76
2023/06/28 05:33:08;;;;;;;5.13;1.80;;;21.70;99.90;;;;;;5038759;28;20181;-77
2023/06/28 05:35:35;;;;;;;5.47;1.80;;;21.60;99.90;;;;;;5054820;28;20232;-77
2023/06/28 05:38:02;;;;;;;5.88;1.73;;;22.70;99.90;;;;;;5051879;28;20212;-76
2023/06/28 05:40:29;;;;;;;5.82;1.58;;;23.40;99.90;;;;;;5056521;28;20198;-78
2023/06/28 05:42:55;;;;;;;4.43;1.50;;;24.40;99.90;;;;;;5036134;28;20215;-75
2023/06/28 05:45:25;;;;;;;3.83;1.50;;;25.20;99.90;;;;;;5057204;28;20424;-77
2023/06/28 05:47:50;;;;;;;5.10;1.80;;;26.20;99.90;;;;;;5056272;28;20192;-77
2023/06/28 05:50:17;;;;;;;4.07;1.52;;;26.60;99.90;;;;;;5056697;28;20217;-78
2023/06/28 05:52:47;;;;;;;5.75;2.30;;;26.40;99.90;;;;;;5058175;28;20178;-77
2023/06/28 05:55:12;;;;;;;3.40;1.77;;;26.20;99.90;;;;;;5047750;28;20217;-77
2023/06/28 05:57:39;;;;;;;2.58;1.50;;;25.80;99.90;;;;;;5049237;28;20181;-76
2023/06/28 06:00:06;;;;;;;6.22;2.10;;;25.60;99.90;;;;;;5050181;28;20189;-78
2023/06/28 06:02:33;;;;;;;5.97;2.03;;;26.10;99.90;;;;;;5041969;28;20203;-77
2023/06/28 06:04:58;;;;;;;5.05;2.45;;;26.10;99.90;;;;;;5056604;28;20193;-77
2023/06/28 06:07:24;;;;;;;4.20;1.60;;;26.00;99.90;;;;;;5058739;28;20667;-78
2023/06/28 06:09:50;;;;;;;4.53;1.92;;;25.70;99.90;;;;;;5057915;28;20668;-76
2023/06/28 06:12:15;;;;;;;6.07;2.05;;;25.10;99.90;;;;;;5054476;28;20274;-78
2023/06/28 06:14:41;;;;;;;6.90;2.03;;;24.50;99.90;;;;;;5055447;28;20181;-76
2023/06/28 06:17:06;;;;;;;5.82;1.80;;;24.00;99.90;;;;;;5057570;28;20206;-77
2023/06/28 06:19:32;;;;;;;4.22;1.65;;;23.60;99.90;;;;;;5035725;28;20184;-78
2023/06/28 06:21:58;;;;;;;4.32;2.03;;;23.90;99.90;;;;;;5059572;28;20178;-77
2023/06/28 06:24:23;;;;;;;6.40;2.20;;;23.40;99.90;;;;;;5056402;28;20537;-77
2023/06/28 06:26:49;;;;;;;5.80;2.05;;;23.00;99.90;;;;;;5059510;28;20657;-77
2023/06/28 06:29:14;;;;;;;5.80;1.80;;;22.30;99.90;;;;;;5041444;28;20283;-77
2023/06/28 06:31:40;;;;;;;4.05;1.70;;;21.20;99.90;;;;;;5059640;28;20576;-78
2023/06/28 06:34:05;;;;;;;5.00;1.58;;;21.50;99.90;;;;;;5055133;28;20189;-76
2023/06/28 06:36:31;;;;;;;4.80;1.60;;;22.20;99.90;;;;;;5059852;28;20774;-78
2023/06/28 06:38:57;;;;;;;5.45;1.50;;;22.50;99.90;;;;;;5061654;28;20608;-77
2023/06/28 06:41:23;;;;;;;6.53;1.95;;;22.70;99.90;;;;;;5053818;28;20700;-77
2023/06/28 06:43:49;;;;;;;5.40;1.48;;;22.00;99.90;;;;;;5053479;28;20186;-76
2023/06/28 06:46:16;;;;;;;4.85;1.63;;;22.00;99.90;;;;;;5055202;28;20209;-77
2023/06/28 06:48:42;;;;;;;5.55;2.35;;;21.30;99.90;;;;;;5059072;28;20173;-77
2023/06/28 06:51:08;;;;;;;4.80;1.42;;;20.50;99.90;;;;;;5055218;28;20209;-77
2023/06/28 06:53:33;;;;;;;4.32;1.60;;;21.30;99.90;;;;;;5058318;28;20674;-79
2023/06/28 06:55:59;;;;;;;8.30;2.08;;;22.90;99.90;;;;;;5054316;28;20216;-78
2023/06/28 06:58:25;;;;;;;3.85;1.55;;;22.70;99.90;;;;;;5056978;28;20645;-76
2023/06/28 07:00:52;;;;;;;3.67;1.27;;;23.00;99.90;;;;;;5056135;28;20197;-78
2023/06/28 07:03:18;;;;;;;5.47;1.65;;;22.80;99.90;;;;;;5057689;28;20324;-76
2023/06/28 07:05:44;;;;;;;5.57;1.70;;;22.30;99.90;;;;;;5057946;28;20288;-77
2023/06/28 07:08:10;;;;;;;4.65;1.42;;;23.40;99.90;;;;;;5059994;28;20193;-77
2023/06/28 07:10:36;;;;;;;4.22;1.40;;;24.40;99.90;;;;;;5058752;28;20206;-76
2023/06/28 07:13:01;;;;;;;5.38;1.80;;;23.20;99.90;;;;;;5057647;28;20185;-80
2023/06/28 07:15:27;;;;;;;5.15;1.83;;;23.70;99.90;;;;;;5059448;28;20669;-77
2023/06/28 07:17:53;;;;;;;4.05;1.35;;;25.50;99.90;;;;;;5060247;28;20190;-77
2023/06/28 07:20:20;;;;;;;4.45;1.38;;;27.40;99.90;;;;;;5059397;28;20188;-77
2023/06/28 07:22:46;;;;;;;3.88;1.40;;;27.60;99.90;;;;;;5041802;28;20536;-78
2023/06/28 07:25:12;;;;;;;2.88;1.30;;;28.50;99.90;;;;;;5058356;28;20205;-76
2023/06/28 07:27:37;;;;;;;5.70;1.70;;;28.60;99.90;;;;;;5051041;28;20187;-78
2023/06/28 07:30:03;;;;;;;3.33;1.40;;;29.30;99.90;;;;;;5053538;28;20263;-80
2023/06/28 07:32:29;;;;;;;3.85;1.42;;;29.40;99.90;;;;;;5056490;28;20223;-79
2023/06/28 07:34:55;;;;;;;5.90;1.70;;;27.40;99.90;;;;;;5054819;28;20275;-78
2023/06/28 07:37:24;;;;;;;3.00;1.13;;;25.50;99.90;;;;;;5056503;28;20641;-78
2023/06/28 07:39:49;;;;;;;3.67;1.30;;;24.10;99.90;;;;;;5055305;28;20182;-78
2023/06/28 07:42:15;;;;;;;2.67;1.10;;;23.20;99.90;;;;;;5055730;28;20545;-80
2023/06/28 07:44:41;;;;;;;4.13;1.40;;;22.80;99.90;;;;;;5056301;28;20546;-77
2023/06/28 07:47:07;;;;;;;3.03;1.40;;;22.50;99.90;;;;;;5059323;28;20214;-77
2023/06/28 07:49:32;;;;;;;3.25;1.48;;;21.90;99.90;;;;;;5057812;28;20178;-78
2023/06/28 07:52:00;;;;;;;2.92;1.15;;;21.70;99.90;;;;;;5058069;28;20206;-78
2023/06/28 07:54:25;;;;;;;2.55;1.33;;;21.50;99.90;;;;;;5057629;28;20193;-76
2023/06/28 07:56:51;;;;;;;2.08;0.95;;;21.50;99.90;;;;;;5040402;28;20201;-76
2023/06/28 07:59:19;;;;;;;3.88;1.20;;;21.20;99.90;;;;;;5058860;28;20266;-76
2023/06/28 08:01:46;;;;;;;4.88;1.30;;;21.10;99.90;;;;;;5055038;28;20193;-77
2023/06/28 08:04:12;;;;;;;2.67;1.10;;;21.00;99.90;;;;;;5054852;28;20209;-77
2023/06/28 08:06:37;;;;;;;4.43;1.63;;;20.80;99.90;;;;;;5049990;28;20214;-77
2023/06/28 08:09:03;;;;;;;3.60;1.20;;;20.70;99.90;;;;;;5051674;28;20238;-77
2023/06/28 08:11:30;;;;;;;2.75;1.40;;;20.50;99.90;;;;;;5053374;28;20339;-75
2023/06/28 08:13:55;;;;;;;2.30;1.05;;;20.50;99.90;;;;;;5053793;28;20266;-80
2023/06/28 08:16:21;;;;;;;2.97;1.50;;;20.50;99.90;;;;;;5054040;28;20197;-75
2023/06/28 08:18:47;;;;;;;2.38;1.10;;;20.70;99.90;;;;;;5057254;28;20177;-74
2023/06/28 08:21:13;;;;;;;3.08;1.70;;;20.80;99.90;;;;;;5056028;28;20269;-77
2023/06/28 08:23:39;;;;;;;2.65;1.02;;;21.00;99.90;;;;;;5054931;28;20203;-77
2023/06/28 08:26:04;;;;;;;2.92;1.27;;;21.00;99.90;;;;;;5055792;28;20685;-77
2023/06/28 08:28:30;;;;;;;4.43;1.77;;;20.80;99.90;;;;;;5053414;28;20635;-75
2023/06/28 08:30:56;;;;;;;5.05;1.38;;;20.90;99.90;;;;;;5057057;28;20208;-80
2023/06/28 08:33:24;;;;;;;3.50;1.50;;;21.00;99.90;;;;;;5054022;28;20256;-80
2023/06/28 08:35:50;;;;;;;4.32;1.42;;;20.80;99.90;;;;;;5056858;28;20204;-81
2023/06/28 08:38:16;;;;;;;3.55;1.45;;;20.80;99.90;;;;;;5054127;28;20182;-80
2023/06/28 08:40:42;;;;;;;4.00;1.08;;;20.60;99.90;;;;;;5036281;28;20581;-79
2023/06/28 08:43:12;;;;;;;3.42;1.13;;;20.50;99.90;;;;;;5055456;28;20229;-80
2023/06/28 08:45:38;;;;;;;3.15;1.30;;;20.20;99.90;;;;;;5035585;28;20205;-79
2023/06/28 08:48:04;;;;;;;3.45;1.48;;;20.00;99.90;;;;;;5052590;28;20197;-79
2023/06/28 08:50:30;;;;;;;3.83;1.17;;;19.90;99.90;;;;;;5053763;28;20292;-80
2023/06/28 08:52:56;;;;;;;4.50;1.30;;;20.10;99.90;;;;;;5054103;28;20260;-80
2023/06/28 08:55:23;;;;;;;5.00;1.38;;;20.00;99.90;;;;;;5055050;28;20576;-78
2023/06/28 08:57:49;;;;;;;4.43;1.40;;;20.10;99.90;;;;;;5038062;28;20182;-79
2023/06/28 09:00:15;;;;;;;4.03;1.50;;;20.20;99.90;;;;;;5056521;28;20231;-79
2023/06/28 09:02:42;;;;;;;2.50;1.42;;;20.20;99.90;;;;;;5038364;28;20186;-79
2023/06/28 09:05:09;;;;;;;3.05;1.30;;;20.30;99.90;;;;;;5057587;28;20202;-82
2023/06/28 09:07:38;;;;;;;3.45;1.40;;;20.20;99.90;;;;;;5055359;28;20288;-80
2023/06/28 09:10:05;;;;;;;3.05;1.23;;;20.10;99.90;;;;;;5050958;28;20255;-78
2023/06/28 09:12:31;;;;;;;3.10;1.42;;;20.30;99.90;;;;;;5053998;28;20210;-78
2023/06/28 09:14:58;;;;;;;4.43;1.10;;;20.30;99.90;;;;;;5054927;28;20193;-78
2023/06/28 09:17:23;;;;;;;3.25;1.42;;;20.30;99.90;;;;;;5056447;28;20252;-78
2023/06/28 09:19:49;;;;;;;4.30;1.48;;;20.10;99.90;;;;;;5056157;28;20265;-79
2023/06/28 09:22:15;;;;;;;4.07;1.50;;;20.30;99.90;;;;;;5056172;28;20188;-78
2023/06/28 09:24:41;;;;;;;2.47;1.20;;;20.30;99.90;;;;;;5054162;28;20182;-78
2023/06/28 09:27:08;;;;;;;3.85;1.35;;;20.40;99.90;;;;;;5054592;28;20208;-77
2023/06/28 09:29:34;;;;;;;4.47;1.38;;;20.60;99.90;;;;;;5052690;28;20194;-78
2023/06/28 09:32:00;;;;;;;3.97;1.40;;;20.70;99.90;;;;;;5052104;28;20312;-80
2023/06/28 09:34:26;;;;;;;3.35;1.30;;;20.80;99.90;;;;;;5053219;28;20182;-78
2023/06/28 09:36:53;;;;;;;3.28;1.42;;;20.90;99.90;;;;;;5055309;28;20204;-80
2023/06/28 09:39:22;;;;;;;1.52;1.17;;;21.00;99.90;;;;;;5054235;28;20248;-78
2023/06/28 09:41:49;;;;;;;2.03;1.15;;;21.10;99.90;;;;;;5054049;28;20178;-78
2023/06/28 09:44:27;;;;;;;4.05;1.50;;;21.10;99.90;;;;;;5036856;28;20197;-78
2023/06/28 09:47:00;;;;;;;4.10;1.25;;;20.90;99.90;;;;;;5037452;28;20213;-77
2023/06/28 09:49:26;;;;;;;4.95;1.40;;;20.70;99.90;;;;;;5053993;28;20183;-77
2023/06/28 09:52:01;;;;;;;2.95;1.25;;;20.80;99.90;;;;;;5053150;28;20193;-79
2023/06/28 09:54:31;;;;;;;3.83;1.20;;;21.00;99.90;;;;;;5053252;28;20177;-79
2023/06/28 09:56:59;;;;;;;2.15;1.05;;;21.00;99.90;;;;;;5053884;28;20213;-80
2023/06/28 09:59:28;;;;;;;2.15;1.25;;;21.00;99.90;;;;;;5053714;28;20265;-79
2023/06/28 10:01:58;;;;;;;4.05;1.15;;;21.10;99.90;;;;;;5053169;28;20171;-77
2023/06/28 10:04:27;;;;;;;2.97;1.30;;;21.10;99.90;;;;;;5054923;28;20228;-78
2023/06/28 10:06:55;;;;;;;4.00;1.40;;;21.10;99.90;;;;;;5017204;28;1061191;-79
2023/06/28 10:09:22;;;;;;;3.70;1.42;;;21.40;99.90;;;;;;5055437;28;20236;-79
2023/06/28 10:11:48;;;;;;;3.65;1.23;;;21.80;99.90;;;;;;5055572;28;20223;-80
2023/06/28 10:14:17;;;;;;;3.83;1.27;;;21.90;99.90;;;;;;5056149;28;20194;-79
2023/06/28 10:16:45;;;;;;;3.45;1.40;;;21.80;99.90;;;;;;5056945;28;20248;-80
2023/06/28 10:19:11;;;;;;;2.95;1.10;;;22.10;99.90;;;;;;5039049;28;20174;-78
2023/06/28 10:21:39;;;;;;;2.13;1.08;;;22.30;99.90;;;;;;5036602;28;20186;-80
2023/06/28 10:24:06;;;;;;;2.17;1.17;;;22.60;99.90;;;;;;5055630;28;20186;-79
2023/06/28 10:26:33;;;;;;;4.75;1.27;;;22.90;99.90;;;;;;5055670;28;20711;-82
2023/06/28 10:29:00;;;;;;;3.50;1.35;;;22.80;99.90;;;;;;5038080;28;20190;-80
2023/06/28 10:31:26;;;;;;;1.38;0.90;;;22.60;99.90;;;;;;5037603;28;20194;-79
2023/06/28 10:33:54;;;;;;;2.33;1.17;;;22.60;99.90;;;;;;5038817;28;20201;-79
2023/06/28 10:36:21;;;;;;;3.53;1.25;;;22.30;99.90;;;;;;5034979;28;20202;-77
2023/06/28 10:38:50;;;;;;;4.28;1.10;;;22.30;99.90;;;;;;5053022;28;20181;-77
2023/06/28 10:41:17;;;;;;;1.77;0.98;;;22.10;99.90;;;;;;5043975;28;20213;-78
2023/06/28 10:43:43;;;;;;;3.75;1.20;;;22.00;99.90;;;;;;5056043;28;20183;-79
2023/06/28 10:46:25;;;;;;;2.58;1.10;;;22.00;99.90;;;;;;5055665;28;20256;-79
2023/06/28 10:48:55;;;;;;;2.97;1.30;;;22.20;99.90;;;;;;5053021;28;20178;-78
2023/06/28 10:51:25;;;;;;;3.30;1.30;;;22.10;99.90;;;;;;5058438;28;20201;-79
2023/06/28 10:53:53;;;;;;;2.60;1.33;;;22.40;99.90;;;;;;5055349;28;20200;-81
2023/06/28 10:56:20;;;;;;;1.70;1.00;;;22.60;99.90;;;;;;5058396;28;20795;-78
2023/06/28 10:58:52;;;;;;;2.28;0.95;;;22.70;99.90;;;;;;5059845;28;20178;-81
2023/06/28 11:01:53;;;;;;;2.58;1.13;;;22.80;99.90;;;;;;5049190;28;20175;-80
2023/06/28 11:04:25;;;;;;;3.08;1.10;;;23.00;99.90;;;;;;5040674;28;20209;-79
2023/06/28 11:07:06;;;;;;;3.95;1.30;;;23.00;99.90;;;;;;5059693;28;20213;-80
2023/06/28 11:09:32;;;;;;;2.17;0.90;;;23.10;99.90;;;;;;5060436;28;20221;-80
2023/06/28 11:11:59;;;;;;;3.28;1.05;;;22.90;99.90;;;;;;5041527;28;20201;-80
2023/06/28 11:14:31;;;;;;;3.60;1.40;;;23.10;99.90;;;;;;5058738;28;20577;-78
2023/06/28 11:17:02;;;;;;;1.98;1.08;;;23.00;99.90;;;;;;5058589;28;20198;-79
2023/06/28 11:19:28;;;;;;;3.13;1.05;;;23.10;99.90;;;;;;5059905;28;20200;-79
2023/06/28 11:21:58;;;;;;;2.63;1.10;;;23.30;99.90;;;;;;5059039;28;20250;-80
2023/06/28 11:24:35;;;;;;;2.45;1.38;;;23.60;99.90;;;;;;5058972;28;20227;-79
2023/06/28 11:27:00;;;;;;;2.88;1.27;;;24.10;99.90;;;;;;5060091;28;20201;-81
2023/06/28 11:29:26;;;;;;;4.30;1.20;;;24.20;99.90;;;;;;5058886;28;20240;-80
2023/06/28 11:32:01;;;;;;;2.72;1.15;;;24.10;99.90;;;;;;5057685;28;20193;-80
2023/06/28 11:34:30;;;;;;;3.00;1.10;;;24.30;99.90;;;;;;5041154;28;20185;-78
2023/06/28 11:36:57;;;;;;;4.95;1.02;;;24.30;99.90;;;;;;5040072;28;20690;-81
2023/06/28 11:39:23;;;;;;;2.88;1.02;;;24.40;99.90;;;;;;5059418;28;20188;-81
2023/06/28 11:41:49;;;;;;;2.08;1.27;;;24.40;99.90;;;;;;5040264;28;20182;-82
2023/06/28 11:44:15;;;;;;;1.60;1.00;;;24.30;99.90;;;;;;5040447;28;20236;-82
2023/06/28 11:46:45;;;;;;;2.60;1.10;;;24.50;99.90;;;;;;5058959;28;20205;-82
2023/06/28 11:49:11;;;;;;;2.35;1.00;;;24.60;99.90;;;;;;5040012;28;20182;-80
2023/06/28 11:51:37;;;;;;;3.42;1.45;;;24.40;99.90;;;;;;5057744;28;20620;-80
2023/06/28 11:54:06;;;;;;;3.08;0.90;;;24.40;99.90;;;;;;5058709;28;20185;-81
2023/06/28 11:56:39;;;;;;;1.80;1.00;;;24.70;99.90;;;;;;5058608;28;20197;-82
2023/06/28 11:59:18;;;;;;;4.78;1.30;;;24.90;99.90;;;;;;5048170;28;20205;-81
2023/06/28 12:01:45;;;;;;;2.83;0.90;;;24.60;99.90;;;;;;5056370;28;20177;-81
2023/06/28 12:04:19;;;;;;;2.13;1.15;;;24.40;99.90;;;;;;5058685;28;20232;-78
2023/06/28 12:06:45;;;;;;;1.77;1.20;;;24.60;99.90;;;;;;5058526;28;20213;-80
2023/06/28 12:09:24;;;;;;;2.35;1.17;;;24.70;99.90;;;;;;5054040;28;20185;-81
2023/06/28 12:11:54;;;;;;;2.17;1.10;;;25.00;99.90;;;;;;5038561;28;20193;-81
2023/06/28 12:14:21;;;;;;;2.35;1.00;;;24.70;99.90;;;;;;5057541;28;20281;-79
2023/06/28 12:16:48;;;;;;;2.72;1.30;;;24.50;99.90;;;;;;5068090;22;20657;-88
2023/06/28 12:19:17;;;;;;;4.00;1.17;;;24.20;99.90;;;;;;5023634;28;20193;-87
2023/06/28 12:21:44;;;;;;;2.25;1.00;;;24.00;99.90;;;;;;5023862;28;20178;-87
2023/06/28 12:24:24;;;;;;;2.30;1.00;;;23.90;99.90;;;;;;5024302;28;20210;-88
2023/06/28 12:26:59;;;;;;;2.17;0.90;;;24.00;99.90;;;;;;5024901;28;20648;-89
2023/06/28 12:29:29;;;;;;;3.40;1.27;;;24.50;99.90;;;;;;5019372;28;20185;-88
2023/06/28 12:32:02;;;;;;;4.53;1.38;;;24.20;99.90;;;;;;5025965;28;20210;-87
2023/06/28 12:34:29;;;;;;;2.28;1.00;;;24.10;99.90;;;;;;5028877;28;20817;-88
2023/06/28 12:36:57;;;;;;;2.60;1.33;;;24.10;99.90;;;;;;5025071;28;20581;-89
2023/06/28 12:39:25;;;;;;;3.90;1.38;;;24.40;99.90;;;;;;5024128;28;20201;-88
2023/06/28 12:42:08;;;;;;;1.85;1.10;;;24.50;99.90;;;;;;5042916;28;20182;-88
2023/06/28 12:44:51;;;;;;;1.90;1.17;;;24.70;99.90;;;;;;5024277;28;20240;-89
2023/06/28 12:47:18;;;;;;;2.97;1.05;;;24.30;99.90;;;;;;5024412;28;20296;-87
2023/06/28 12:49:44;;;;;;;4.30;2.58;;;24.10;99.90;;;;;;5024531;28;20233;-89